createdAt,value
2023-04-07T00:00:52.821Z,68.67
2023-04-07T00:03:20.787Z,69.16
2023-04-07T00:05:48.592Z,68.95
2023-04-07T00:08:16.673Z,69.18
2023-04-07T00:10:44.427Z,68.78
2023-04-07T00:13:12.098Z,68.93
2023-04-07T00:15:41.256Z,68.37
2023-04-07T00:18:09.139Z,68.65
2023-04-07T00:20:36.881Z,69.01
2023-04-07T00:23:04.635Z,69.25
2023-04-07T00:25:32.300Z,69.50
2023-04-07T00:28:00.041Z,69.42
2023-04-07T00:30:27.835Z,68.70
2023-04-07T00:32:56.992Z,69.37
2023-04-07T00:35:24.873Z,69.07
2023-04-07T00:37:52.648Z,69.38
2023-04-07T00:40:20.336Z,68.62
2023-04-07T00:42:48.029Z,69.04
2023-04-07T00:45:15.820Z,68.38
2023-04-07T00:47:44.047Z,68.60
2023-04-07T00:50:13.529Z,68.69
2023-04-07T00:52:41.619Z,68.40
2023-04-07T00:55:10.274Z,68.51
2023-04-07T00:57:38.089Z,68.30
2023-04-07T01:00:07.492Z,68.58
2023-04-07T01:02:41.885Z,68.26
2023-04-07T01:05:19.366Z,68.21
2023-04-07T01:07:56.847Z,68.00
2023-04-07T01:10:29.487Z,68.76
2023-04-07T01:13:04.190Z,68.13
2023-04-07T01:15:34.986Z,67.75
2023-04-07T01:18:11.311Z,67.70
2023-04-07T01:20:41.483Z,67.32
2023-04-07T01:23:09.783Z,67.43
2023-04-07T01:25:56.083Z,67.59
2023-04-07T01:28:42.621Z,67.39
2023-04-07T01:31:14.088Z,67.32
2023-04-07T01:33:46.174Z,67.26
2023-04-07T01:36:14.726Z,67.49
2023-04-07T01:38:44.408Z,67.71
2023-04-07T01:41:14.721Z,67.56
2023-04-07T01:43:44.408Z,67.81
2023-04-07T01:46:14.500Z,68.32
2023-04-07T01:48:43.450Z,68.21
2023-04-07T01:51:17.333Z,68.56
2023-04-07T01:53:45.554Z,68.13
2023-04-07T01:56:13.576Z,68.54
2023-04-07T01:58:41.302Z,68.16
2023-04-07T02:01:09.081Z,68.83
2023-04-07T02:03:44.383Z,68.61
2023-04-07T02:06:17.415Z,68.72
2023-04-07T02:08:50.264Z,68.73
2023-04-07T02:11:21.595Z,68.90
2023-04-07T02:13:52.601Z,68.65
2023-04-07T02:16:21.887Z,69.06
2023-04-07T02:18:51.438Z,69.03
2023-04-07T02:21:21.425Z,68.96
2023-04-07T02:23:49.245Z,68.83
2023-04-07T02:26:17.150Z,68.86
2023-04-07T02:28:44.879Z,68.97
2023-04-07T02:31:13.736Z,68.95
2023-04-07T02:33:41.606Z,68.71
2023-04-07T02:36:10.706Z,69.14
2023-04-07T02:38:38.402Z,69.09
2023-04-07T02:41:06.744Z,69.54
2023-04-07T02:43:34.460Z,68.91
2023-04-07T02:46:02.189Z,68.79
2023-04-07T02:48:29.986Z,68.66
2023-04-07T02:50:57.732Z,68.71
2023-04-07T02:53:26.820Z,68.45
2023-04-07T02:55:54.528Z,68.33
2023-04-07T02:58:22.407Z,68.28
2023-04-07T03:00:50.966Z,68.55
2023-04-07T03:03:18.921Z,68.44
2023-04-07T03:05:46.757Z,67.90
2023-04-07T03:08:14.504Z,68.12
2023-04-07T03:10:44.005Z,68.16
2023-04-07T03:13:12.951Z,68.04
2023-04-07T03:15:40.768Z,68.08
2023-04-07T03:18:08.497Z,68.40
2023-04-07T03:20:36.444Z,68.36
2023-04-07T03:23:04.368Z,68.22
2023-04-07T03:25:32.694Z,68.28
2023-04-07T03:28:01.775Z,68.65
2023-04-07T03:30:29.471Z,68.01
2023-04-07T03:32:57.253Z,68.28
2023-04-07T03:35:25.120Z,68.25
2023-04-07T03:37:52.837Z,68.36
2023-04-07T03:40:20.657Z,68.42
2023-04-07T03:42:49.233Z,68.56
2023-04-07T03:45:18.470Z,68.68
2023-04-07T03:47:46.350Z,68.31
2023-04-07T03:50:14.072Z,68.27
2023-04-07T03:52:41.771Z,68.89
2023-04-07T03:55:10.311Z,68.66
2023-04-07T03:57:38.062Z,68.34
2023-04-07T04:00:07.396Z,68.50
2023-04-07T04:02:36.585Z,68.85
2023-04-07T04:05:04.565Z,68.67
2023-04-07T04:07:33.630Z,68.55
2023-04-07T04:10:01.822Z,69.17
2023-04-07T04:12:29.722Z,68.44
2023-04-07T04:14:57.396Z,68.88
2023-04-07T04:17:27.004Z,68.75
2023-04-07T04:19:56.336Z,68.39
2023-04-07T04:22:24.049Z,68.21
2023-04-07T04:24:51.744Z,68.24
2023-04-07T04:27:19.500Z,68.42
2023-04-07T04:29:47.702Z,68.67
2023-04-07T04:32:15.526Z,68.41
2023-04-07T04:34:43.204Z,68.10
2023-04-07T04:37:12.612Z,67.94
2023-04-07T04:39:40.513Z,67.47
2023-04-07T04:42:08.235Z,68.06
2023-04-07T04:44:36.737Z,67.24
2023-04-07T04:47:04.590Z,67.65
2023-04-07T04:49:32.548Z,67.36
2023-04-07T04:52:00.260Z,67.02
2023-04-07T04:54:29.347Z,67.38
2023-04-07T04:56:57.611Z,67.75
2023-04-07T04:59:26.871Z,67.64
2023-04-07T05:01:54.738Z,67.50
2023-04-07T05:04:22.679Z,67.44
2023-04-07T05:06:50.583Z,67.50
2023-04-07T05:09:18.340Z,67.80
2023-04-07T05:11:47.414Z,67.47
2023-04-07T05:14:15.130Z,67.13
2023-04-07T05:16:42.876Z,67.41
2023-04-07T05:19:10.556Z,67.15
2023-04-07T05:21:38.267Z,67.10
2023-04-07T05:24:08.064Z,67.68
2023-04-07T05:26:36.863Z,67.49
2023-04-07T05:29:05.940Z,67.44
2023-04-07T05:31:35.974Z,67.19
2023-04-07T05:34:03.820Z,67.77
2023-04-07T05:36:31.816Z,67.53
2023-04-07T05:38:59.560Z,67.76
2023-04-07T05:41:27.306Z,67.76
2023-04-07T05:43:55.058Z,67.29
2023-04-07T05:46:24.226Z,68.06
2023-04-07T05:48:51.910Z,67.47
2023-04-07T05:51:19.641Z,67.63
2023-04-07T05:53:47.565Z,67.99
2023-04-07T05:56:15.440Z,67.79
2023-04-07T05:58:43.140Z,67.75
2023-04-07T06:01:10.868Z,67.79
2023-04-07T06:03:41.063Z,68.19
2023-04-07T06:06:09.123Z,67.71
2023-04-07T06:08:36.933Z,67.88
2023-04-07T06:11:04.740Z,67.88
2023-04-07T06:13:32.492Z,67.88
2023-04-07T06:16:01.386Z,67.42
2023-04-07T06:18:29.056Z,67.55
2023-04-07T06:20:58.136Z,67.44
2023-04-07T06:23:25.970Z,67.52
2023-04-07T06:25:53.766Z,67.78
2023-04-07T06:28:22.251Z,67.28
2023-04-07T06:30:50.140Z,67.53
2023-04-07T06:33:18.258Z,67.42
2023-04-07T06:35:46.044Z,67.49
2023-04-07T06:38:15.118Z,67.58
2023-04-07T06:40:42.812Z,67.43
2023-04-07T06:43:10.519Z,68.13
2023-04-07T06:45:38.527Z,68.28
2023-04-07T06:48:06.769Z,67.95
2023-04-07T06:50:34.555Z,68.60
2023-04-07T06:53:02.264Z,68.65
2023-04-07T06:55:31.357Z,68.50
2023-04-07T06:57:59.140Z,68.67
2023-04-07T07:00:30.139Z,69.04
2023-04-07T07:02:58.262Z,69.24
2023-04-07T07:05:26.198Z,68.93
2023-04-07T07:07:53.923Z,69.07
2023-04-07T07:10:22.711Z,69.22
2023-04-07T07:12:52.502Z,69.66
2023-04-07T07:15:20.225Z,68.88
2023-04-07T07:17:47.979Z,69.42
2023-04-07T07:20:15.777Z,69.08
2023-04-07T07:22:43.548Z,69.43
2023-04-07T07:25:11.774Z,69.64
2023-04-07T07:27:39.548Z,69.56
2023-04-07T07:30:10.059Z,69.55
2023-04-07T07:32:37.774Z,69.57
2023-04-07T07:35:06.191Z,69.51
2023-04-07T07:37:33.905Z,70.00
2023-04-07T07:40:01.687Z,69.84
2023-04-07T07:42:31.104Z,69.68
2023-04-07T07:44:59.133Z,69.80
2023-04-07T07:47:28.264Z,70.39
2023-04-07T07:49:56.207Z,69.34
2023-04-07T07:52:24.176Z,69.43
2023-04-07T07:54:52.543Z,68.58
2023-04-07T07:57:20.363Z,68.05
2023-04-07T07:59:48.029Z,67.07
2023-04-07T08:02:15.953Z,66.62
2023-04-07T08:04:45.652Z,65.87
2023-04-07T08:07:13.407Z,65.98
2023-04-07T08:09:41.118Z,66.10
2023-04-07T08:12:08.844Z,66.39
2023-04-07T08:14:36.567Z,66.88
2023-04-07T08:17:04.291Z,67.41
2023-04-07T08:19:32.067Z,67.13
2023-04-07T08:22:01.131Z,67.62
2023-04-07T08:24:29.579Z,67.81
2023-04-07T08:26:57.355Z,67.73
2023-04-07T08:29:25.060Z,67.87
2023-04-07T08:31:52.842Z,68.16
2023-04-07T08:34:21.226Z,67.82
2023-04-07T08:36:48.922Z,68.22
2023-04-07T08:39:18.037Z,67.93
2023-04-07T08:41:48.624Z,68.44
2023-04-07T08:44:16.707Z,67.92
2023-04-07T08:46:45.031Z,68.21
2023-04-07T08:49:14.332Z,68.24
2023-04-07T08:51:47.425Z,68.18
2023-04-07T08:54:21.587Z,68.75
2023-04-07T08:56:49.473Z,68.52
2023-04-07T08:59:18.683Z,68.51
2023-04-07T09:01:48.327Z,68.38
2023-04-07T09:04:16.273Z,68.50
2023-04-07T09:06:45.020Z,68.68
2023-04-07T09:09:13.931Z,69.11
2023-04-07T09:11:44.225Z,68.84
2023-04-07T09:14:12.001Z,68.19
2023-04-07T09:16:40.115Z,67.95
2023-04-07T09:19:07.901Z,68.42
2023-04-07T09:21:56.656Z,68.22
2023-04-07T09:24:26.159Z,66.04
2023-04-07T09:27:11.241Z,66.12
2023-04-07T09:29:41.310Z,66.64
2023-04-07T09:32:09.607Z,65.62
2023-04-07T09:34:40.957Z,65.06
2023-04-07T09:37:09.654Z,64.11
2023-04-07T09:39:51.391Z,63.27
2023-04-07T09:42:20.763Z,62.68
2023-04-07T09:44:48.572Z,62.27
2023-04-07T09:47:16.396Z,61.26
2023-04-07T09:49:52.436Z,60.93
2023-04-07T09:52:21.724Z,60.40
2023-04-07T09:54:50.942Z,60.39
2023-04-07T09:57:21.922Z,60.28
2023-04-07T09:59:50.140Z,59.81
2023-04-07T10:02:18.385Z,59.97
2023-04-07T10:04:46.572Z,59.67
2023-04-07T10:07:14.752Z,59.94
2023-04-07T10:09:42.524Z,59.62
2023-04-07T10:12:10.363Z,59.91
2023-04-07T10:14:40.389Z,60.40
2023-04-07T10:17:12.280Z,61.02
2023-04-07T10:19:40.453Z,61.54
2023-04-07T10:22:08.728Z,61.97
2023-04-07T10:24:52.865Z,62.42
2023-04-07T10:27:23.948Z,62.69
2023-04-07T10:29:54.017Z,63.17
2023-04-07T10:32:21.868Z,63.49
2023-04-07T10:35:02.175Z,64.14
2023-04-07T10:37:29.957Z,64.44
2023-04-07T10:40:28.984Z,64.82
2023-04-07T10:42:57.704Z,65.17
2023-04-07T10:45:59.746Z,65.39
2023-04-07T10:48:33.224Z,65.63
2023-04-07T10:51:17.949Z,65.79
2023-04-07T10:54:20.706Z,65.95
2023-04-07T10:57:14.490Z,65.92
2023-04-07T11:00:04.464Z,66.25
2023-04-07T11:02:37.464Z,66.77
2023-04-07T11:05:05.656Z,66.48
2023-04-07T11:07:47.419Z,66.96
2023-04-07T11:10:16.416Z,66.88
2023-04-07T11:12:44.586Z,66.65
2023-04-07T11:15:19.571Z,65.92
2023-04-07T11:17:48.898Z,65.63
2023-04-07T11:20:16.935Z,66.03
2023-04-07T11:23:00.947Z,65.94
2023-04-07T11:25:30.280Z,66.28
2023-04-07T11:27:58.612Z,65.92
2023-04-07T11:30:26.774Z,65.93
2023-04-07T11:32:57.128Z,65.57
2023-04-07T11:35:25.025Z,65.83
2023-04-07T11:37:58.821Z,64.99
2023-04-07T11:40:33.545Z,65.24
2023-04-07T11:43:01.786Z,64.96
2023-04-07T11:45:29.766Z,65.04
2023-04-07T11:47:58.824Z,65.19
2023-04-07T11:50:50.444Z,64.97
2023-04-07T11:53:27.133Z,65.18
2023-04-07T11:56:01.656Z,64.86
2023-04-07T11:58:29.459Z,65.06
2023-04-07T12:00:58.058Z,64.26
2023-04-07T12:03:27.487Z,64.50
2023-04-07T12:05:55.516Z,64.79
2023-04-07T12:08:23.246Z,64.96
2023-04-07T12:11:04.380Z,65.33
2023-04-07T12:13:32.537Z,65.43
2023-04-07T12:16:00.745Z,65.47
2023-04-07T12:18:30.344Z,65.46
2023-04-07T12:20:59.077Z,65.97
2023-04-07T12:23:27.299Z,65.93
2023-04-07T12:25:55.035Z,65.75
2023-04-07T12:28:22.748Z,65.78
2023-04-07T12:30:50.438Z,65.55
2023-04-07T12:33:18.131Z,65.47
2023-04-07T12:35:47.456Z,64.90
2023-04-07T12:38:15.671Z,64.15
2023-04-07T12:40:43.924Z,63.79
2023-04-07T12:43:11.696Z,63.09
2023-04-07T12:45:39.383Z,62.26
2023-04-07T12:48:07.198Z,61.30
2023-04-07T12:50:36.443Z,61.00
2023-04-07T12:53:05.993Z,60.04
2023-04-07T12:55:35.673Z,59.69
2023-04-07T12:58:03.452Z,59.20
2023-04-07T13:00:31.516Z,58.65
2023-04-07T13:02:59.418Z,59.05
2023-04-07T13:05:27.419Z,59.39
2023-04-07T13:07:55.324Z,60.29
2023-04-07T13:10:24.436Z,60.52
2023-04-07T13:12:52.114Z,61.07
2023-04-07T13:15:19.879Z,61.26
2023-04-07T13:17:47.751Z,61.28
2023-04-07T13:20:19.643Z,61.66
2023-04-07T13:22:52.100Z,61.83
2023-04-07T13:25:29.942Z,61.87
2023-04-07T13:27:57.639Z,61.86
2023-04-07T13:30:25.409Z,62.16
2023-04-07T13:32:53.214Z,62.39
2023-04-07T13:35:21.469Z,62.53
2023-04-07T13:37:49.148Z,62.66
2023-04-07T13:40:16.858Z,62.86
2023-04-07T13:42:47.008Z,62.99
2023-04-07T13:45:14.849Z,63.29
2023-04-07T13:47:42.649Z,63.21
2023-04-07T13:50:11.262Z,62.82
2023-04-07T13:52:39.024Z,62.72
2023-04-07T13:55:07.627Z,63.04
2023-04-07T13:57:35.393Z,62.88
2023-04-07T14:00:04.953Z,62.65
2023-04-07T14:02:32.994Z,62.62
2023-04-07T14:05:00.759Z,62.73
2023-04-07T14:07:28.435Z,62.71
2023-04-07T14:09:56.145Z,62.79
2023-04-07T14:12:23.806Z,62.98
2023-04-07T14:14:52.741Z,62.84
2023-04-07T14:17:22.021Z,62.99
2023-04-07T14:19:49.723Z,63.05
2023-04-07T14:22:17.410Z,63.27
2023-04-07T14:24:45.214Z,63.17
2023-04-07T14:27:14.121Z,63.25
2023-04-07T14:29:41.838Z,63.31
2023-04-07T14:32:09.528Z,63.37
2023-04-07T14:34:38.557Z,63.37
2023-04-07T14:37:06.314Z,63.48
2023-04-07T14:39:34.278Z,63.17
2023-04-07T14:42:02.018Z,63.58
2023-04-07T14:44:31.203Z,63.59
2023-04-07T14:46:59.473Z,63.67
2023-04-07T14:49:28.487Z,63.53
2023-04-07T14:51:58.655Z,63.30
2023-04-07T14:54:26.388Z,63.71
2023-04-07T14:56:54.070Z,63.55
2023-04-07T14:59:21.872Z,63.39
2023-04-07T15:01:49.692Z,63.51
2023-04-07T15:04:17.611Z,63.22
2023-04-07T15:06:47.345Z,63.45
2023-04-07T15:09:16.566Z,62.98
2023-04-07T15:11:44.290Z,63.02
2023-04-07T15:14:12.003Z,63.26
2023-04-07T15:16:39.818Z,63.13
2023-04-07T15:19:07.606Z,63.25
2023-04-07T15:21:35.338Z,63.16
2023-04-07T15:24:03.050Z,62.82
2023-04-07T15:26:32.100Z,63.20
2023-04-07T15:28:59.964Z,63.50
2023-04-07T15:31:28.621Z,63.71
2023-04-07T15:33:56.756Z,63.77
2023-04-07T15:36:24.476Z,63.79
2023-04-07T15:38:52.180Z,63.88
2023-04-07T15:41:19.918Z,63.83
2023-04-07T15:43:49.280Z,63.86
2023-04-07T15:46:17.361Z,63.68
2023-04-07T15:48:46.176Z,63.71
2023-04-07T15:51:13.896Z,63.50
2023-04-07T15:53:41.628Z,63.66
2023-04-07T15:56:10.957Z,63.58
2023-04-07T15:58:40.242Z,63.48
2023-04-07T16:01:09.448Z,63.20
2023-04-07T16:03:37.353Z,63.28
2023-04-07T16:06:05.887Z,63.27
2023-04-07T16:08:33.619Z,63.14
2023-04-07T16:11:01.547Z,62.68
2023-04-07T16:13:29.306Z,62.12
2023-04-07T16:15:57.920Z,61.52
2023-04-07T16:18:27.041Z,60.80
2023-04-07T16:20:54.803Z,60.11
2023-04-07T16:23:22.635Z,59.58
2023-04-07T16:25:50.667Z,59.35
2023-04-07T16:28:18.387Z,58.69
2023-04-07T16:30:46.130Z,58.38
2023-04-07T16:33:13.840Z,57.91
2023-04-07T16:35:42.934Z,58.09
2023-04-07T16:38:11.458Z,58.90
2023-04-07T16:40:39.182Z,59.32
2023-04-07T16:43:07.000Z,59.89
2023-04-07T16:45:34.727Z,60.08
2023-04-07T16:48:03.081Z,60.50
2023-04-07T16:50:30.945Z,60.73
2023-04-07T16:53:00.081Z,61.03
2023-04-07T16:55:27.813Z,61.11
2023-04-07T16:57:55.603Z,61.23
2023-04-07T17:00:23.522Z,61.44
2023-04-07T17:02:51.351Z,61.59
2023-04-07T17:05:19.163Z,61.55
2023-04-07T17:07:46.947Z,61.67
2023-04-07T17:10:16.512Z,61.93
2023-04-07T17:12:44.386Z,61.78
2023-04-07T17:15:12.397Z,61.66
2023-04-07T17:17:40.159Z,62.03
2023-04-07T17:20:08.852Z,62.06
2023-04-07T17:22:36.782Z,62.20
2023-04-07T17:25:05.958Z,62.15
2023-04-07T17:27:35.419Z,62.13
2023-04-07T17:30:03.398Z,62.11
2023-04-07T17:32:31.471Z,62.33
2023-04-07T17:34:59.247Z,62.60
2023-04-07T17:37:26.966Z,62.21
2023-04-07T17:39:54.649Z,62.12
2023-04-07T17:42:22.354Z,61.97
2023-04-07T17:44:54.957Z,61.55
2023-04-07T17:47:22.786Z,60.98
2023-04-07T17:49:50.472Z,60.16
2023-04-07T17:52:18.270Z,59.96
2023-04-07T17:54:46.217Z,58.99
2023-04-07T17:57:15.790Z,58.83
2023-04-07T17:59:43.660Z,58.82
2023-04-07T18:02:12.846Z,58.62
2023-04-07T18:04:41.174Z,59.10
2023-04-07T18:07:09.396Z,59.48
2023-04-07T18:09:37.178Z,60.05
2023-04-07T18:12:05.111Z,60.07
2023-04-07T18:14:32.846Z,60.26
2023-04-07T18:17:00.574Z,60.51
2023-04-07T18:19:30.106Z,60.93
2023-04-07T18:21:57.878Z,61.08
2023-04-07T18:24:25.708Z,61.25
2023-04-07T18:26:53.511Z,61.38
2023-04-07T18:29:21.368Z,61.52
2023-04-07T18:31:49.194Z,61.69
2023-04-07T18:34:17.019Z,61.79
2023-04-07T18:36:47.511Z,61.79
2023-04-07T18:39:15.496Z,61.98
2023-04-07T18:41:44.779Z,61.95
2023-04-07T18:44:12.784Z,62.09
2023-04-07T18:46:40.698Z,62.22
2023-04-07T18:49:08.461Z,62.33
2023-04-07T18:51:36.238Z,62.61
2023-04-07T18:54:05.553Z,62.56
2023-04-07T18:56:33.544Z,62.50
2023-04-07T18:59:01.347Z,62.69
2023-04-07T19:01:29.398Z,62.67
2023-04-07T19:03:57.670Z,62.58
2023-04-07T19:06:25.934Z,62.54
2023-04-07T19:08:53.763Z,62.68
2023-04-07T19:11:22.891Z,62.72
2023-04-07T19:13:52.293Z,62.96
2023-04-07T19:16:21.578Z,62.94
2023-04-07T19:18:49.337Z,63.11
2023-04-07T19:21:17.371Z,63.33
2023-04-07T19:23:45.821Z,63.14
2023-04-07T19:26:14.080Z,63.46
2023-04-07T19:28:44.199Z,63.17
2023-04-07T19:31:11.976Z,63.25
2023-04-07T19:33:39.735Z,63.10
2023-04-07T19:36:07.637Z,63.25
2023-04-07T19:38:35.535Z,63.29
2023-04-07T19:41:03.299Z,63.19
2023-04-07T19:43:32.019Z,63.18
2023-04-07T19:46:01.831Z,63.31
2023-04-07T19:48:29.699Z,63.28
2023-04-07T19:50:57.695Z,63.45
2023-04-07T19:53:26.232Z,63.26
2023-04-07T19:55:54.219Z,63.28
2023-04-07T19:58:22.808Z,63.41
2023-04-07T20:00:51.708Z,63.28
2023-04-07T20:03:22.013Z,63.18
2023-04-07T20:05:50.936Z,63.64
2023-04-07T20:08:18.604Z,63.20
2023-04-07T20:10:46.357Z,63.42
2023-04-07T20:13:14.107Z,63.38
2023-04-07T20:15:41.863Z,63.35
2023-04-07T20:18:11.064Z,63.63
2023-04-07T20:20:40.337Z,63.65
2023-04-07T20:23:08.026Z,63.37
2023-04-07T20:25:36.313Z,63.38
2023-04-07T20:28:04.020Z,63.47
2023-04-07T20:30:32.124Z,63.27
2023-04-07T20:33:00.004Z,63.63
2023-04-07T20:35:27.865Z,63.37
2023-04-07T20:37:57.021Z,63.54
2023-04-07T20:40:24.715Z,63.68
2023-04-07T20:42:52.603Z,63.67
2023-04-07T20:45:22.045Z,63.67
2023-04-07T20:47:50.064Z,63.65
2023-04-07T20:50:18.055Z,63.70
2023-04-07T20:52:45.747Z,63.83
2023-04-07T20:55:14.959Z,63.64
2023-04-07T20:57:42.847Z,63.85
2023-04-07T21:00:11.263Z,64.21
2023-04-07T21:02:39.408Z,64.09
2023-04-07T21:05:07.875Z,64.20
2023-04-07T21:07:36.100Z,64.36
2023-04-07T21:10:03.950Z,64.20
2023-04-07T21:12:33.157Z,64.33
2023-04-07T21:15:02.424Z,64.61
2023-04-07T21:17:30.194Z,64.55
2023-04-07T21:19:57.933Z,64.50
2023-04-07T21:22:25.710Z,64.71
2023-04-07T21:24:55.092Z,64.52
2023-04-07T21:27:24.589Z,64.92
2023-04-07T21:29:53.663Z,65.03
2023-04-07T21:32:22.165Z,65.09
2023-04-07T21:34:53.021Z,64.88
2023-04-07T21:37:21.009Z,65.09
2023-04-07T21:39:48.690Z,64.94
2023-04-07T21:42:16.579Z,65.18
2023-04-07T21:44:44.280Z,64.99
2023-04-07T21:47:13.434Z,65.05
2023-04-07T21:49:41.131Z,65.07
2023-04-07T21:52:08.843Z,65.52
2023-04-07T21:54:36.614Z,65.40
2023-04-07T21:57:04.506Z,65.51
2023-04-07T21:59:32.229Z,65.37
2023-04-07T22:02:00.951Z,65.32
2023-04-07T22:04:30.291Z,65.05
2023-04-07T22:06:58.166Z,65.04
2023-04-07T22:09:26.053Z,65.13
2023-04-07T22:11:54.021Z,65.32
2023-04-07T22:14:24.854Z,65.24
2023-04-07T22:16:52.661Z,65.15
2023-04-07T22:19:20.708Z,65.23
2023-04-07T22:21:50.388Z,65.50
2023-04-07T22:24:18.105Z,65.16
2023-04-07T22:26:45.805Z,65.06
2023-04-07T22:29:13.518Z,65.16
2023-04-07T22:31:41.360Z,64.96
2023-04-07T22:34:09.920Z,65.03
2023-04-07T22:36:37.649Z,65.01
2023-04-07T22:39:06.737Z,64.60
2023-04-07T22:41:34.436Z,64.79
2023-04-07T22:44:02.170Z,64.90
2023-04-07T22:46:29.901Z,64.97
2023-04-07T22:48:57.956Z,64.47
2023-04-07T22:51:27.102Z,64.92
2023-04-07T22:53:54.840Z,64.86
2023-04-07T22:56:24.308Z,64.96
2023-04-07T22:58:52.335Z,65.00
2023-04-07T23:01:20.114Z,64.98
2023-04-07T23:03:48.137Z,64.80
2023-04-07T23:06:15.877Z,65.01
2023-04-07T23:08:43.560Z,64.92
2023-04-07T23:11:11.431Z,64.79
2023-04-07T23:13:40.458Z,64.69
2023-04-07T23:16:12.687Z,64.77
2023-04-07T23:18:40.815Z,64.67
2023-04-07T23:21:08.560Z,64.64
2023-04-07T23:23:36.875Z,64.69
2023-04-07T23:26:04.570Z,64.78
2023-04-07T23:28:32.329Z,65.10
2023-04-07T23:31:02.082Z,65.12
2023-04-07T23:33:31.817Z,64.95
2023-04-07T23:36:00.030Z,64.92
2023-04-07T23:38:27.845Z,64.85
2023-04-07T23:40:55.872Z,64.63
2023-04-07T23:43:23.595Z,65.10
2023-04-07T23:45:51.369Z,64.77
2023-04-07T23:48:20.447Z,64.72
2023-04-07T23:50:50.593Z,64.98
2023-04-07T23:53:18.370Z,64.97
2023-04-07T23:55:48.364Z,64.77
2023-04-07T23:58:16.240Z,64.71
